»·PEaware :: N247CH KTNP-KPOC

N247CH :: KTNP-KPOC

FLIGHT INFORMATION

Flight Status: Arrived
Operator: Privately registered:
United States
More flights under this callsign
Pilot: Ryan B. (29)
Aircraft: BEECH AIRCRAFT SUPER KING AIR 350
(B350)
More flights by this aircraft type
Origin: KTNP Twentynine Palms
United States
Destination: KPOC Brackett
United States
More flights between these airports :: More routes between these airports
Route: +TNP V370 PSP V388 PDZ
File this flight plan on PilotEdge
Remarks:
Altitude:
(Current/Filed)
16,000ft
Speed:
(Current/Filed)
260kts
Departed: 15-Apr-19 05:41 PM
Arrived: 15-Apr-19 06:13 PM
Distance/Time
Traveled:
94nm/0:31
Distance/Time
To Go:
Arrived

Flight Plot

Page will automatically refresh every two minutes.

Flight plan parsing failed; only flown route is shown


Map Options




Map Legend


Flown Route
Filed Route
Departure Airport
Arrival Airport
Navaid (VOR, NDB)
Fix

Horizontal Profiles

Position Reports

Time Latitude Longitude Heading Altitude Ground
Speed
15-Apr-19 17:31 34.135787 -115.943354 269 1822ft 0kts
15-Apr-19 17:32 34.135787 -115.943354 269 1822ft 0kts
15-Apr-19 17:33 34.135787 -115.943354 269 1822ft 0kts
15-Apr-19 17:34 34.135787 -115.943354 269 1822ft 0kts
15-Apr-19 17:35 34.135787 -115.943354 269 1822ft 0kts
15-Apr-19 17:36 34.135787 -115.943354 269 1822ft 0kts
15-Apr-19 17:37 34.135787 -115.943354 269 1822ft 0kts
15-Apr-19 17:38 34.135741 -115.943497 225 1823ft 5kts
15-Apr-19 17:39 34.135262 -115.936048 87 1786ft 13kts
15-Apr-19 17:40 34.134468 -115.942887 268 1851ft 108kts
15-Apr-19 17:41 34.128704 -115.988182 240 3711ft 145kts
15-Apr-19 17:42 34.088446 -116.005234 194 5589ft 175kts
15-Apr-19 17:43 34.039264 -116.018116 195 7377ft 190kts
15-Apr-19 17:44 34.000234 -116.050660 252 9242ft 184kts
15-Apr-19 17:45 33.990109 -116.113123 245 10713ft 191kts
15-Apr-19 17:46 33.964340 -116.169407 252 12230ft 188kts
15-Apr-19 17:47 33.947022 -116.226290 247 14299ft 173kts
15-Apr-19 17:48 33.926718 -116.279769 249 15938ft 200kts
15-Apr-19 17:49 33.902053 -116.353055 243 15932ft 262kts
15-Apr-19 17:50 33.870635 -116.434446 268 16002ft 278kts
15-Apr-19 17:51 33.892294 -116.526018 288 14812ft 296kts
15-Apr-19 17:52 33.917015 -116.619560 287 14012ft 281kts
15-Apr-19 17:53 33.938521 -116.707394 285 14022ft 264kts
15-Apr-19 17:54 33.947321 -116.792676 273 14065ft 257kts
15-Apr-19 17:56 33.946089 -116.877877 267 14135ft 253kts
15-Apr-19 17:57 33.942584 -116.962904 267 14132ft 253kts
15-Apr-19 17:58 33.939142 -117.047587 267 13564ft 248kts
15-Apr-19 17:59 33.935802 -117.128792 268 12029ft 238kts
15-Apr-19 18:00 33.932608 -117.206034 268 10494ft 222kts
15-Apr-19 18:01 33.929577 -117.278309 268 8965ft 212kts
15-Apr-19 18:02 33.926573 -117.348778 268 7472ft 214kts
15-Apr-19 18:03 33.923449 -117.421521 267 5988ft 220kts
15-Apr-19 18:04 33.920272 -117.494083 267 4995ft 204kts
15-Apr-19 18:05 33.957139 -117.527967 0 5049ft 197kts
15-Apr-19 18:06 34.019086 -117.524896 359 3997ft 228kts
15-Apr-19 18:07 34.076161 -117.534955 303 3979ft 200kts
15-Apr-19 18:08 34.082261 -117.589840 272 3992ft 149kts
15-Apr-19 18:09 34.084513 -117.637232 272 3807ft 138kts
15-Apr-19 18:10 34.086658 -117.683696 271 2910ft 142kts
15-Apr-19 18:11 34.088922 -117.728690 273 1993ft 127kts
15-Apr-19 18:12 34.090700 -117.767859 270 1204ft 110kts
15-Apr-19 18:13 34.091190 -117.786834 184 982ft 3kts
15-Apr-19 18:14 34.090711 -117.783473 94 991ft 20kts
15-Apr-19 18:15 34.089548 -117.779636 287 996ft 5kts
15-Apr-19 18:16 34.089660 -117.779712 359 997ft 0kts
15-Apr-19 18:16 34.089660 -117.779712 359 997ft 0kts
15-Apr-19 18:18 34.089660 -117.779712 359 997ft 0kts
15-Apr-19 18:19 34.089660 -117.779712 359 997ft 0kts
15-Apr-19 18:19 34.089660 -117.779712 359 997ft 0kts
15-Apr-19 18:20 34.089660 -117.779712 359 997ft 0kts
15-Apr-19 18:22 34.089660 -117.779712 359 997ft 0kts
15-Apr-19 18:22 34.089660 -117.779712 359 997ft 0kts
15-Apr-19 18:23 34.090359 -117.777273 91 1002ft 23kts
15-Apr-19 18:24 34.090430 -117.774644 3 1004ft 0kts
15-Apr-19 18:25 34.091282 -117.781296 272 1001ft 105kts
15-Apr-19 18:26 34.088604 -117.831461 262 2086ft 177kts

Navigation Log

Ident Type
Flight plan parsing failed, navigation log unavailable